De Gonia, Indiana
Current Conditions -  °F | °C
As of 12:54 PM on Thursday 30 Oct 2014 (Local Time) from KEVV Reporting Station
Clear Clear  
Wind Chill: 55°   Ceiling: Unl
Heat Index: 55°   Visibility: 10mi
Dew Point: 36°   Wind: 0mph
Humidity: 49%   Direction: NA
Pressure: 30.13"   Gusts: NA
Location:  38.0544°N, 87.2562°W
Report Text: KEVV 301754Z 00000KT 10SM CLR 13/02 A3013 RMK AO2 SLP205 T01280022 10128 20022 58019
Loading
Personal Weather Stations






























Interactive Weather Map
Tropical Storm Tracking
New forecast layout! Learn more

10-Day Weather Forecast

Advertisements
Track Severe Weather on mobile